Time;durP1;ratioP1;P1;durP2;ratioP2;P2;SDS_P1;SDS_P2;PMS_P1;PMS_P2;Temp;Humidity;BMP_temperature;BMP_pressure;BME280_temperature;BME280_humidity;BME280_pressure;Samples;Min_cycle;Max_cycle;Signal;HPM_P1;HPM_P2
2023/07/21 00:00:21;;;;;;;5.45;2.35;;;20.50;97.00;;;;;;5034792;28;20068;-42
2023/07/21 00:02:48;;;;;;;4.07;2.70;;;20.50;97.50;;;;;;5034456;28;20108;-46
2023/07/21 00:05:15;;;;;;;2.58;2.38;;;20.40;97.60;;;;;;5034597;28;20044;-45
2023/07/21 00:07:40;;;;;;;2.67;2.25;;;20.30;97.90;;;;;;5034835;28;20103;-42
2023/07/21 00:10:07;;;;;;;2.60;2.50;;;20.30;98.20;;;;;;5034545;28;20022;-43
2023/07/21 00:12:34;;;;;;;2.85;2.22;;;20.20;98.50;;;;;;5034441;28;20034;-43
2023/07/21 00:15:00;;;;;;;5.25;2.55;;;20.10;98.70;;;;;;5034427;28;20444;-42
2023/07/21 00:17:28;;;;;;;3.35;2.60;;;20.10;99.10;;;;;;5033869;28;20026;-44
2023/07/21 00:19:53;;;;;;;3.83;2.50;;;20.20;99.10;;;;;;5034193;28;20029;-41
2023/07/21 00:22:19;;;;;;;5.32;2.85;;;20.00;99.20;;;;;;5034103;28;20026;-48
2023/07/21 00:24:45;;;;;;;5.25;2.95;;;19.90;99.80;;;;;;5034219;28;20025;-45
2023/07/21 00:27:11;;;;;;;3.05;2.60;;;19.90;99.30;;;;;;5033836;28;20021;-44
2023/07/21 00:29:37;;;;;;;4.47;2.83;;;20.00;98.60;;;;;;5034231;28;20546;-43
2023/07/21 00:32:02;;;;;;;2.90;2.40;;;20.20;98.20;;;;;;5034013;28;20033;-45
2023/07/21 00:34:28;;;;;;;3.45;2.63;;;20.50;97.60;;;;;;5055431;22;20069;-47
2023/07/21 00:36:57;;;;;;;2.70;2.50;;;20.60;94.20;;;;;;5033180;28;20025;-50
2023/07/21 00:39:22;;;;;;;4.30;2.60;;;20.70;94.40;;;;;;5033774;28;20156;-48
2023/07/21 00:41:48;;;;;;;3.60;2.17;;;20.70;94.40;;;;;;5032466;28;20105;-50
2023/07/21 00:44:13;;;;;;;2.90;2.28;;;20.90;94.50;;;;;;5033529;28;20080;-47
2023/07/21 00:46:40;;;;;;;5.45;2.30;;;20.90;94.20;;;;;;5033370;28;20036;-47
2023/07/21 00:49:05;;;;;;;3.50;2.78;;;20.90;94.20;;;;;;5033638;28;20022;-50
2023/07/21 00:51:31;;;;;;;5.43;2.28;;;20.90;94.40;;;;;;5015903;28;20027;-49
2023/07/21 00:53:57;;;;;;;9.10;2.42;;;20.90;94.50;;;;;;5015905;28;20025;-45
2023/07/21 00:56:24;;;;;;;2.55;2.35;;;20.80;94.80;;;;;;5033399;28;20178;-49
2023/07/21 00:58:49;;;;;;;3.58;2.67;;;20.80;94.60;;;;;;5033399;28;20053;-52
2023/07/21 01:01:15;;;;;;;6.93;3.13;;;20.80;94.60;;;;;;5015851;28;20067;-50
2023/07/21 01:03:41;;;;;;;6.78;2.72;;;21.00;94.80;;;;;;5033355;28;20029;-47
2023/07/21 01:06:08;;;;;;;3.17;2.40;;;21.00;95.00;;;;;;5033540;28;20113;-47
2023/07/21 01:08:35;;;;;;;6.97;2.38;;;20.70;94.90;;;;;;5033219;28;20056;-47
2023/07/21 01:11:01;;;;;;;7.90;2.65;;;20.70;95.00;;;;;;5033329;28;20021;-47
2023/07/21 01:13:27;;;;;;;5.00;2.78;;;20.60;95.20;;;;;;5033263;28;20036;-47
2023/07/21 01:15:55;;;;;;;2.33;2.08;;;20.60;95.40;;;;;;5033115;28;20493;-47
2023/07/21 01:18:22;;;;;;;3.08;2.83;;;20.50;95.80;;;;;;5032896;28;20412;-47
2023/07/21 01:20:49;;;;;;;2.38;2.15;;;20.50;96.20;;;;;;5033154;28;20018;-48
2023/07/21 01:23:27;;;;;;;2.58;2.35;;;20.40;96.10;;;;;;5033056;28;20026;-50
2023/07/21 01:25:53;;;;;;;6.53;2.20;;;20.20;96.60;;;;;;5033082;28;20037;-51
2023/07/21 01:28:20;;;;;;;2.97;2.38;;;20.10;96.70;;;;;;5032709;28;20396;-50
2023/07/21 01:30:48;;;;;;;3.55;2.60;;;20.30;96.90;;;;;;5032854;28;20432;-48
2023/07/21 01:33:18;;;;;;;3.88;2.20;;;20.10;97.00;;;;;;5032842;28;20048;-46
2023/07/21 01:35:45;;;;;;;4.25;2.35;;;20.10;97.10;;;;;;5032848;28;20475;-47
2023/07/21 01:38:13;;;;;;;8.20;2.70;;;20.00;97.30;;;;;;5032544;28;20401;-49
2023/07/21 01:40:39;;;;;;;5.72;3.40;;;20.00;97.40;;;;;;5015060;28;20021;-53
2023/07/21 01:43:04;;;;;;;2.60;2.40;;;20.00;98.00;;;;;;5032272;28;20018;-48
2023/07/21 01:45:30;;;;;;;3.00;2.80;;;20.30;98.50;;;;;;5032627;28;20155;-48
2023/07/21 01:47:56;;;;;;;5.22;2.95;;;19.80;99.10;;;;;;5032287;28;20029;-47
2023/07/21 01:50:23;;;;;;;3.13;2.92;;;19.60;99.90;;;;;;5032519;28;20021;-50
2023/07/21 01:52:50;;;;;;;3.15;2.85;;;19.70;99.90;;;;;;5032026;28;20026;-51
2023/07/21 01:55:28;;;;;;;5.85;3.10;;;19.50;99.90;;;;;;5032297;28;20025;-49
2023/07/21 01:58:00;;;;;;;5.60;2.60;;;19.50;99.90;;;;;;5014376;28;20029;-49
2023/07/21 02:00:35;;;;;;;3.00;2.65;;;19.40;99.90;;;;;;5032337;28;20021;-49
2023/07/21 02:03:03;;;;;;;3.80;2.83;;;19.30;99.90;;;;;;5032315;28;20018;-49
2023/07/21 02:05:28;;;;;;;5.95;3.20;;;19.10;99.90;;;;;;5032260;28;20036;-48
2023/07/21 02:07:54;;;;;;;3.10;2.88;;;19.20;99.90;;;;;;5014212;28;20389;-48
2023/07/21 02:10:20;;;;;;;6.72;3.80;;;19.20;99.90;;;;;;5014591;28;20037;-47
2023/07/21 02:12:45;;;;;;;3.83;3.50;;;19.20;99.90;;;;;;5032006;28;20489;-50
2023/07/21 02:15:11;;;;;;;3.45;3.15;;;19.10;99.90;;;;;;5032075;28;20021;-51
2023/07/21 02:17:37;;;;;;;4.50;3.60;;;19.00;99.90;;;;;;5031824;28;20026;-49
2023/07/21 02:20:09;;;;;;;5.20;3.30;;;18.90;99.90;;;;;;5032074;28;20022;-47
2023/07/21 02:22:39;;;;;;;5.07;3.70;;;18.80;99.90;;;;;;5031915;28;20037;-48
2023/07/21 02:25:07;;;;;;;5.00;3.45;;;18.80;99.90;;;;;;5032129;28;20014;-52
2023/07/21 02:27:33;;;;;;;5.70;3.78;;;18.80;99.90;;;;;;5014026;28;20500;-47
2023/07/21 02:30:00;;;;;;;8.07;3.85;;;18.60;99.90;;;;;;5031887;28;20033;-46
2023/07/21 02:32:25;;;;;;;6.25;3.80;;;18.60;99.90;;;;;;5031814;28;20030;-49
2023/07/21 02:34:51;;;;;;;8.57;3.85;;;18.60;99.90;;;;;;5031506;28;20037;-47
2023/07/21 02:37:16;;;;;;;3.90;3.60;;;18.40;99.90;;;;;;5031398;28;20037;-47
2023/07/21 02:39:42;;;;;;;5.43;3.83;;;18.50;99.90;;;;;;5031839;28;20032;-48
2023/07/21 02:42:08;;;;;;;4.38;3.97;;;18.40;99.90;;;;;;5032067;28;20393;-46
2023/07/21 02:44:33;;;;;;;6.50;3.92;;;18.40;99.90;;;;;;5031491;28;20029;-47
2023/07/21 02:46:59;;;;;;;3.85;3.38;;;18.40;99.90;;;;;;5032227;28;20028;-47
2023/07/21 02:49:24;;;;;;;4.03;3.65;;;18.40;99.90;;;;;;5031850;28;20021;-48
2023/07/21 02:51:50;;;;;;;5.60;3.78;;;18.30;99.90;;;;;;5032158;28;20128;-47
2023/07/21 02:54:15;;;;;;;3.53;3.22;;;18.10;99.90;;;;;;5032059;28;20025;-47
2023/07/21 02:56:41;;;;;;;5.05;3.42;;;18.00;99.90;;;;;;5031663;28;20025;-48
2023/07/21 02:59:08;;;;;;;4.18;3.10;;;18.00;99.90;;;;;;5031600;28;20096;-49
2023/07/21 03:01:34;;;;;;;8.57;3.80;;;18.00;99.90;;;;;;5031430;28;20048;-48
2023/07/21 03:04:00;;;;;;;7.50;3.83;;;18.00;99.90;;;;;;5031530;28;20025;-51
2023/07/21 03:06:28;;;;;;;4.65;3.67;;;18.00;99.90;;;;;;5030440;28;20025;-52
2023/07/21 03:08:55;;;;;;;6.57;3.65;;;18.10;99.90;;;;;;5031563;28;20496;-48
2023/07/21 03:11:21;;;;;;;5.03;4.07;;;18.10;99.90;;;;;;5031410;28;20028;-51
2023/07/21 03:13:47;;;;;;;5.03;4.13;;;18.00;99.90;;;;;;5031268;28;20029;-50
2023/07/21 03:16:13;;;;;;;4.43;3.92;;;18.10;99.90;;;;;;5031207;28;20389;-47
2023/07/21 03:18:39;;;;;;;6.70;4.32;;;17.90;99.90;;;;;;5031083;28;20026;-52
2023/07/21 03:21:04;;;;;;;4.88;4.13;;;18.00;99.90;;;;;;5031303;28;20432;-47
2023/07/21 03:23:30;;;;;;;8.40;4.28;;;18.00;99.90;;;;;;5031265;28;20029;-48
2023/07/21 03:25:55;;;;;;;4.85;4.22;;;18.00;99.90;;;;;;5031220;28;20021;-48
2023/07/21 03:28:25;;;;;;;8.35;4.13;;;18.00;99.90;;;;;;5030899;28;20025;-51
2023/07/21 03:30:58;;;;;;;5.30;4.40;;;18.10;99.90;;;;;;5031514;28;20017;-47
2023/07/21 03:33:24;;;;;;;5.78;4.35;;;18.30;99.90;;;;;;5030985;28;20029;-47
2023/07/21 03:36:04;;;;;;;4.28;3.78;;;18.40;99.90;;;;;;5013349;28;20103;-47
2023/07/21 03:38:32;;;;;;;5.00;3.95;;;18.40;99.90;;;;;;5030819;28;20025;-46
2023/07/21 03:41:06;;;;;;;4.55;4.13;;;18.40;99.90;;;;;;5031104;28;20025;-45
2023/07/21 03:43:32;;;;;;;5.85;4.85;;;18.40;99.90;;;;;;5030610;28;20021;-47
2023/07/21 03:45:59;;;;;;;5.03;4.63;;;18.40;99.90;;;;;;5013421;28;20033;-51
2023/07/21 03:48:26;;;;;;;5.22;4.32;;;18.40;99.90;;;;;;5031151;28;20032;-48
2023/07/21 03:51:13;;;;;;;21.00;4.25;;;18.30;99.90;;;;;;5031084;28;20025;-50
2023/07/21 03:53:39;;;;;;;4.47;4.07;;;18.20;99.90;;;;;;5031027;28;20060;-47
2023/07/21 03:56:08;;;;;;;6.65;4.03;;;18.20;99.90;;;;;;5030877;28;20061;-50
2023/07/21 03:58:34;;;;;;;10.98;4.72;;;18.00;99.90;;;;;;5030578;28;20029;-51
2023/07/21 04:00:59;;;;;;;4.32;3.85;;;18.20;99.90;;;;;;5030975;28;20072;-48
2023/07/21 04:03:25;;;;;;;6.63;4.05;;;18.20;99.90;;;;;;5013107;28;20523;-48
2023/07/21 04:05:51;;;;;;;4.43;4.05;;;18.30;99.90;;;;;;5030984;28;20476;-49
2023/07/21 04:08:18;;;;;;;4.57;4.28;;;18.20;99.90;;;;;;5030740;28;20060;-51
2023/07/21 04:10:44;;;;;;;5.55;4.63;;;18.30;99.90;;;;;;5030963;28;20017;-47
2023/07/21 04:13:09;;;;;;;6.80;3.90;;;18.20;99.90;;;;;;5013047;28;20028;-48
2023/07/21 04:15:35;;;;;;;4.53;4.13;;;18.20;99.90;;;;;;5030766;28;20444;-47
2023/07/21 04:18:01;;;;;;;9.75;4.15;;;18.20;99.90;;;;;;5015763;28;20473;-47
2023/07/21 04:20:28;;;;;;;4.07;3.78;;;18.20;99.90;;;;;;5034255;28;20025;-48
2023/07/21 04:22:54;;;;;;;5.40;4.45;;;18.20;99.90;;;;;;5034409;28;20017;-48
2023/07/21 04:25:20;;;;;;;6.82;4.10;;;18.20;99.90;;;;;;5016468;28;20060;-50
2023/07/21 04:27:50;;;;;;;9.10;4.47;;;18.20;99.90;;;;;;5033937;28;20021;-47
2023/07/21 04:30:16;;;;;;;5.70;4.63;;;18.30;99.90;;;;;;5034293;28;20027;-47
2023/07/21 04:32:42;;;;;;;6.38;4.15;;;18.30;99.90;;;;;;5034078;28;20035;-47
2023/07/21 04:35:11;;;;;;;6.97;4.47;;;18.40;99.90;;;;;;5034166;28;20037;-47
2023/07/21 04:37:37;;;;;;;5.05;4.65;;;18.40;99.90;;;;;;5033617;28;20366;-47
2023/07/21 04:40:05;;;;;;;5.32;4.60;;;18.40;99.90;;;;;;5034169;28;20038;-46
2023/07/21 04:42:32;;;;;;;5.78;4.30;;;18.40;99.90;;;;;;5033901;28;20071;-51
2023/07/21 04:44:58;;;;;;;5.95;4.18;;;18.30;99.90;;;;;;5033650;28;20022;-52
2023/07/21 04:47:24;;;;;;;4.82;4.43;;;18.10;99.90;;;;;;5033454;28;20028;-51
2023/07/21 04:49:50;;;;;;;7.25;4.50;;;18.10;99.90;;;;;;5033794;28;20025;-50
2023/07/21 04:52:16;;;;;;;7.18;4.65;;;18.00;99.90;;;;;;5033763;28;20385;-47
2023/07/21 04:54:42;;;;;;;8.63;5.15;;;18.10;99.90;;;;;;5034030;28;20029;-46
2023/07/21 04:57:07;;;;;;;4.85;4.35;;;18.20;99.90;;;;;;5033198;28;20088;-49
2023/07/21 04:59:33;;;;;;;7.68;4.68;;;18.30;99.90;;;;;;5015613;28;20054;-49
2023/07/21 05:01:58;;;;;;;8.65;5.43;;;18.30;99.90;;;;;;5033350;28;20028;-47
2023/07/21 05:04:24;;;;;;;6.50;4.72;;;18.30;99.90;;;;;;5033440;28;20022;-48
2023/07/21 05:06:50;;;;;;;8.82;4.70;;;18.20;99.90;;;;;;5033182;28;20094;-50
2023/07/21 05:09:15;;;;;;;5.15;4.72;;;18.30;99.90;;;;;;5033437;28;20101;-47
2023/07/21 05:11:41;;;;;;;6.65;4.97;;;18.20;99.90;;;;;;5033257;28;20046;-47
2023/07/21 05:14:07;;;;;;;9.85;4.30;;;18.20;99.90;;;;;;5033168;28;20079;-53
2023/07/21 05:16:35;;;;;;;5.13;4.53;;;18.10;99.90;;;;;;5032999;28;20108;-51
2023/07/21 05:19:00;;;;;;;7.47;5.25;;;18.20;99.90;;;;;;5033066;28;20022;-53
2023/07/21 05:21:26;;;;;;;6.65;4.10;;;18.30;99.90;;;;;;5032979;28;20022;-50
2023/07/21 05:23:51;;;;;;;5.25;4.40;;;18.40;99.90;;;;;;5033100;28;20029;-51
2023/07/21 05:26:17;;;;;;;7.80;5.28;;;18.40;99.90;;;;;;5032831;28;20081;-49
2023/07/21 05:28:42;;;;;;;7.75;5.65;;;18.40;99.90;;;;;;5031991;28;20104;-50
2023/07/21 05:31:11;;;;;;;8.32;5.13;;;18.40;99.90;;;;;;5033089;28;20036;-50
2023/07/21 05:33:37;;;;;;;6.78;5.78;;;18.20;99.90;;;;;;5032728;28;20039;-50
2023/07/21 05:36:09;;;;;;;7.22;5.40;;;18.10;99.90;;;;;;5033075;28;20029;-47
2023/07/21 05:38:35;;;;;;;6.53;5.93;;;18.10;99.90;;;;;;5033097;28;20037;-47
2023/07/21 05:41:01;;;;;;;7.15;6.32;;;18.10;99.90;;;;;;5032978;28;20421;-47
2023/07/21 05:43:26;;;;;;;7.07;6.38;;;18.10;99.90;;;;;;5032734;28;20032;-49
2023/07/21 05:45:52;;;;;;;6.45;5.75;;;18.00;99.90;;;;;;5032951;28;20112;-47
2023/07/21 05:48:18;;;;;;;6.75;6.10;;;18.10;99.90;;;;;;5032556;28;20030;-48
2023/07/21 05:50:43;;;;;;;6.35;5.65;;;18.20;99.90;;;;;;5032863;28;20025;-49
2023/07/21 05:53:09;;;;;;;6.60;5.97;;;18.20;99.90;;;;;;5032478;28;20113;-52
2023/07/21 05:55:35;;;;;;;7.63;5.03;;;18.10;99.90;;;;;;5014382;28;20065;-48
2023/07/21 05:58:00;;;;;;;8.65;5.22;;;18.00;99.90;;;;;;5032120;28;20021;-48
2023/07/21 06:00:26;;;;;;;9.25;5.60;;;17.90;99.90;;;;;;5032726;28;20033;-50
2023/07/21 06:02:52;;;;;;;6.78;6.15;;;17.90;99.90;;;;;;5032286;28;20033;-49
2023/07/21 06:05:18;;;;;;;6.95;5.45;;;17.90;99.90;;;;;;5032291;28;20029;-47
2023/07/21 06:07:45;;;;;;;7.47;5.50;;;18.00;99.90;;;;;;5031884;28;20033;-45
2023/07/21 06:10:11;;;;;;;7.82;5.20;;;18.10;99.90;;;;;;5032502;28;20026;-45
2023/07/21 06:12:37;;;;;;;5.95;5.28;;;18.20;99.90;;;;;;5032201;28;20061;-49
2023/07/21 06:15:08;;;;;;;7.25;5.25;;;18.30;99.90;;;;;;5032317;28;20119;-50
2023/07/21 06:17:33;;;;;;;7.70;5.55;;;18.50;99.90;;;;;;5032023;28;20400;-49
2023/07/21 06:20:00;;;;;;;10.43;4.90;;;18.60;99.90;;;;;;5032060;28;20026;-49
2023/07/21 06:22:26;;;;;;;6.22;5.38;;;18.70;99.90;;;;;;5032026;28;20468;-47
2023/07/21 06:24:51;;;;;;;7.93;5.13;;;18.90;99.90;;;;;;5031897;28;20397;-51
2023/07/21 06:27:17;;;;;;;6.15;5.07;;;19.00;99.90;;;;;;5031829;28;20025;-52
2023/07/21 06:29:43;;;;;;;6.30;4.82;;;19.10;99.90;;;;;;5032034;28;20049;-51
2023/07/21 06:32:08;;;;;;;7.97;5.13;;;19.20;99.90;;;;;;5031972;28;20030;-48
2023/07/21 06:34:34;;;;;;;12.15;6.40;;;19.30;99.90;;;;;;5040445;22;20072;-47
2023/07/21 06:37:00;;;;;;;10.00;5.55;;;19.30;99.90;;;;;;5011532;28;20040;-44
2023/07/21 06:39:25;;;;;;;7.43;4.68;;;19.50;99.90;;;;;;5012080;28;20057;-48
2023/07/21 06:41:51;;;;;;;8.07;5.28;;;19.60;99.90;;;;;;5011909;28;20500;-44
2023/07/21 06:44:20;;;;;;;6.43;4.63;;;19.80;99.90;;;;;;5011697;28;20079;-44
2023/07/21 06:46:49;;;;;;;4.65;4.18;;;19.90;99.90;;;;;;5011583;28;20048;-47
2023/07/21 06:49:15;;;;;;;8.43;4.63;;;20.00;99.90;;;;;;5013023;28;20021;-46
2023/07/21 06:51:40;;;;;;;5.75;4.60;;;20.00;99.90;;;;;;5011953;28;20444;-43
2023/07/21 06:54:08;;;;;;;5.25;4.60;;;20.10;99.90;;;;;;5011725;28;20033;-45
2023/07/21 06:56:34;;;;;;;4.97;4.57;;;20.00;99.90;;;;;;5011444;28;20390;-44
2023/07/21 06:58:59;;;;;;;8.57;5.50;;;20.00;99.90;;;;;;5011560;28;20497;-45
2023/07/21 07:01:25;;;;;;;8.43;5.43;;;20.00;99.90;;;;;;5011688;28;20041;-44
2023/07/21 07:03:50;;;;;;;8.52;5.60;;;20.10;99.90;;;;;;5010188;28;20037;-47
2023/07/21 07:06:16;;;;;;;9.57;5.55;;;20.20;99.90;;;;;;5009415;28;20409;-44
2023/07/21 07:08:42;;;;;;;7.63;5.15;;;20.30;99.90;;;;;;5021072;28;20106;-44
2023/07/21 07:11:09;;;;;;;7.05;4.60;;;20.70;99.90;;;;;;5023167;28;20557;-43
2023/07/21 07:13:34;;;;;;;7.30;4.47;;;21.40;99.90;;;;;;5031305;28;20025;-50
2023/07/21 07:16:00;;;;;;;7.75;4.68;;;22.10;99.90;;;;;;5031097;28;20112;-46
2023/07/21 07:18:26;;;;;;;5.18;4.43;;;22.10;99.90;;;;;;5030825;28;20030;-47
2023/07/21 07:20:53;;;;;;;7.15;4.65;;;21.80;99.90;;;;;;5031150;28;20021;-51
2023/07/21 07:23:19;;;;;;;4.10;3.72;;;21.40;99.90;;;;;;5012283;28;20025;-49
2023/07/21 07:25:52;;;;;;;12.10;3.88;;;21.40;99.90;;;;;;5017804;28;20037;-51
2023/07/21 07:28:19;;;;;;;5.13;4.20;;;21.70;99.90;;;;;;5028415;28;20022;-50
2023/07/21 07:30:46;;;;;;;6.80;3.53;;;22.80;99.90;;;;;;5031140;28;20116;-52
2023/07/21 07:33:14;;;;;;;3.30;3.00;;;23.80;99.90;;;;;;5030839;28;20053;-52
2023/07/21 07:35:50;;;;;;;4.97;2.85;;;24.60;99.90;;;;;;5030748;28;20492;-50
2023/07/21 07:38:24;;;;;;;3.63;3.13;;;25.00;98.70;;;;;;5019737;28;20488;-50
2023/07/21 07:40:50;;;;;;;7.57;2.88;;;24.90;98.30;;;;;;5024642;28;20562;-48
2023/07/21 07:43:15;;;;;;;6.90;3.30;;;24.70;97.60;;;;;;5031317;28;20446;-49
2023/07/21 07:45:41;;;;;;;3.22;2.60;;;23.80;98.40;;;;;;5030842;28;20060;-48
2023/07/21 07:48:07;;;;;;;2.55;2.38;;;23.50;99.00;;;;;;5030706;28;20037;-47
2023/07/21 07:50:39;;;;;;;4.20;2.50;;;23.30;98.90;;;;;;5031067;28;20049;-52
2023/07/21 07:53:06;;;;;;;6.05;2.80;;;23.20;98.90;;;;;;5034494;28;20424;-49
2023/07/21 07:55:42;;;;;;;7.03;3.03;;;23.00;99.80;;;;;;5025572;28;20029;-49
2023/07/21 07:58:09;;;;;;;4.72;2.63;;;22.60;99.90;;;;;;5021996;28;20044;-47
2023/07/21 08:00:37;;;;;;;5.53;2.90;;;22.70;99.90;;;;;;5026353;28;20025;-55
2023/07/21 08:03:07;;;;;;;4.13;2.40;;;22.40;99.90;;;;;;5034568;28;20029;-48
2023/07/21 08:05:35;;;;;;;2.28;2.10;;;22.40;99.90;;;;;;5028688;28;20023;-50
2023/07/21 08:08:02;;;;;;;5.35;2.72;;;22.40;99.90;;;;;;5022586;28;20022;-51
2023/07/21 08:10:28;;;;;;;2.95;2.75;;;22.40;99.90;;;;;;5032890;28;20052;-49
2023/07/21 08:12:55;;;;;;;4.07;2.55;;;22.40;99.90;;;;;;5034568;28;20021;-51
2023/07/21 08:15:21;;;;;;;5.32;3.10;;;22.20;99.90;;;;;;5022210;28;20106;-50
2023/07/21 08:17:47;;;;;;;8.07;3.05;;;22.30;99.90;;;;;;5026450;28;20497;-50
2023/07/21 08:20:12;;;;;;;7.30;3.67;;;22.40;99.90;;;;;;5015515;28;20033;-49
2023/07/21 08:22:38;;;;;;;3.45;2.75;;;22.50;99.90;;;;;;5015743;28;20024;-42
2023/07/21 08:25:05;;;;;;;2.60;2.38;;;22.60;99.90;;;;;;5014620;28;20030;-44
2023/07/21 08:27:33;;;;;;;2.60;2.40;;;22.70;99.90;;;;;;5020336;28;20385;-44
2023/07/21 08:29:59;;;;;;;5.80;3.00;;;22.60;99.90;;;;;;5019694;28;20265;-44
2023/07/21 08:32:25;;;;;;;2.65;2.45;;;22.70;99.90;;;;;;5012696;28;20026;-44
2023/07/21 08:34:50;;;;;;;4.05;2.67;;;22.60;99.90;;;;;;5018709;28;20030;-44
2023/07/21 08:37:16;;;;;;;3.33;2.83;;;22.70;99.90;;;;;;5023411;28;20464;-45
2023/07/21 08:39:41;;;;;;;2.60;2.40;;;22.50;99.90;;;;;;5013960;28;20029;-44
2023/07/21 08:42:12;;;;;;;3.40;2.72;;;22.40;99.90;;;;;;5025347;28;20033;-44
2023/07/21 08:44:38;;;;;;;4.15;2.80;;;22.50;99.90;;;;;;5026507;28;20370;-44
2023/07/21 08:47:04;;;;;;;3.15;2.95;;;22.70;99.90;;;;;;5018115;28;20444;-44
2023/07/21 08:49:29;;;;;;;3.00;2.80;;;23.00;99.90;;;;;;5021420;28;20029;-46
2023/07/21 08:51:55;;;;;;;5.65;2.58;;;23.10;99.90;;;;;;5014806;28;20026;-45
2023/07/21 08:54:21;;;;;;;3.10;2.50;;;23.30;99.40;;;;;;5013250;28;20022;-44
2023/07/21 08:56:46;;;;;;;4.82;2.28;;;23.50;99.60;;;;;;5014546;28;20228;-47
2023/07/21 08:59:12;;;;;;;9.55;2.50;;;23.50;99.30;;;;;;4999476;28;20036;-44
2023/07/21 09:01:37;;;;;;;3.05;2.75;;;23.30;99.20;;;;;;5013159;28;20022;-43
2023/07/21 09:04:20;;;;;;;3.50;2.50;;;23.20;99.60;;;;;;5012155;28;20022;-43
2023/07/21 09:06:54;;;;;;;5.03;2.67;;;23.10;99.50;;;;;;4997936;28;20017;-45
2023/07/21 09:09:21;;;;;;;11.85;3.35;;;22.90;99.90;;;;;;4997149;28;20038;-44
2023/07/21 09:11:47;;;;;;;5.25;3.17;;;22.90;99.90;;;;;;5004459;28;20022;-48
2023/07/21 09:14:14;;;;;;;3.20;2.85;;;22.90;99.70;;;;;;5000468;28;20112;-47
2023/07/21 09:16:40;;;;;;;3.65;3.28;;;22.80;99.90;;;;;;5011728;28;20038;-44
2023/07/21 09:19:06;;;;;;;3.75;3.30;;;22.80;99.90;;;;;;5019731;28;20392;-43
2023/07/21 09:21:35;;;;;;;4.00;2.80;;;22.70;99.90;;;;;;5021465;28;20021;-47
2023/07/21 09:24:02;;;;;;;4.18;3.08;;;22.70;99.90;;;;;;5014653;28;20033;-44
2023/07/21 09:26:28;;;;;;;2.95;2.72;;;22.80;99.90;;;;;;5011855;28;20116;-48
2023/07/21 09:28:54;;;;;;;4.53;3.63;;;23.00;99.90;;;;;;5013651;28;20473;-43
2023/07/21 09:31:31;;;;;;;6.43;4.38;;;23.30;99.90;;;;;;5025288;28;20461;-46
2023/07/21 09:34:05;;;;;;;5.40;3.22;;;23.50;99.50;;;;;;5026710;28;20355;-49
2023/07/21 09:36:31;;;;;;;3.45;2.97;;;23.60;99.60;;;;;;5009112;28;20492;-49
2023/07/21 09:39:01;;;;;;;7.63;3.63;;;23.80;99.40;;;;;;5016936;28;20072;-46
2023/07/21 09:41:32;;;;;;;6.03;3.10;;;24.10;98.50;;;;;;5024392;28;20439;-45
2023/07/21 09:44:01;;;;;;;3.75;3.30;;;24.60;97.80;;;;;;5012030;28;20017;-44
2023/07/21 09:46:27;;;;;;;2.78;2.22;;;24.80;96.20;;;;;;5029310;28;20022;-44
2023/07/21 09:48:53;;;;;;;5.65;3.05;;;24.60;96.80;;;;;;5032444;28;20509;-49
2023/07/21 09:51:20;;;;;;;3.95;2.60;;;24.70;96.50;;;;;;5026277;28;20490;-50
2023/07/21 09:53:46;;;;;;;5.97;3.67;;;24.50;96.40;;;;;;5006319;28;20111;-47
2023/07/21 09:56:13;;;;;;;2.85;2.65;;;24.50;96.90;;;;;;5032259;28;20041;-46
2023/07/21 09:58:45;;;;;;;3.75;2.88;;;24.80;96.80;;;;;;5031923;28;20037;-49
2023/07/21 10:01:12;;;;;;;4.70;2.83;;;25.20;95.50;;;;;;5019291;28;20026;-49
2023/07/21 10:03:38;;;;;;;3.38;2.53;;;25.50;94.70;;;;;;5013151;28;20041;-48
2023/07/21 10:06:04;;;;;;;3.53;2.35;;;25.70;94.50;;;;;;5012201;28;20438;-45
2023/07/21 10:08:33;;;;;;;5.22;2.67;;;25.80;94.10;;;;;;5012030;28;20449;-48
2023/07/21 10:10:59;;;;;;;4.00;2.33;;;25.90;94.80;;;;;;5014649;28;20034;-47
2023/07/21 10:13:26;;;;;;;8.60;2.25;;;26.20;94.20;;;;;;5028348;28;20076;-52
2023/07/21 10:15:52;;;;;;;2.22;1.98;;;26.20;93.80;;;;;;5031709;28;20033;-45
2023/07/21 10:18:18;;;;;;;3.17;1.98;;;26.50;92.50;;;;;;5031606;28;20547;-43
2023/07/21 10:20:55;;;;;;;5.35;1.88;;;26.20;91.90;;;;;;5029581;28;20026;-46
2023/07/21 10:23:29;;;;;;;4.68;1.98;;;25.90;92.00;;;;;;5018235;28;20026;-45
2023/07/21 10:25:56;;;;;;;2.63;1.60;;;25.80;91.70;;;;;;5008934;28;20060;-47
2023/07/21 10:28:31;;;;;;;2.53;2.03;;;25.80;92.10;;;;;;5021122;28;20501;-46
2023/07/21 10:31:21;;;;;;;3.00;1.70;;;25.90;91.60;;;;;;5007947;28;20044;-49
2023/07/21 10:34:12;;;;;;;2.42;2.22;;;25.60;91.60;;;;;;5020985;28;20567;-43
2023/07/21 10:36:58;;;;;;;4.13;2.10;;;25.40;92.00;;;;;;5021144;28;20037;-44
2023/07/21 10:39:26;;;;;;;4.32;2.38;;;25.40;92.00;;;;;;5023514;28;20428;-44
2023/07/21 10:41:54;;;;;;;3.53;2.33;;;25.40;91.40;;;;;;5031643;28;20496;-47
2023/07/21 10:44:20;;;;;;;4.43;2.50;;;25.10;91.60;;;;;;5031430;28;20496;-44
2023/07/21 10:46:48;;;;;;;3.33;2.20;;;24.90;91.80;;;;;;5031451;28;20030;-46
2023/07/21 10:49:15;;;;;;;2.63;1.92;;;24.80;91.90;;;;;;5032213;28;20419;-46
2023/07/21 10:51:45;;;;;;;2.40;2.20;;;24.70;91.80;;;;;;5031702;28;20442;-45
2023/07/21 10:54:12;;;;;;;3.30;2.53;;;24.50;92.30;;;;;;5031474;28;20022;-48
2023/07/21 10:56:39;;;;;;;2.65;1.83;;;24.20;93.00;;;;;;5031157;28;20493;-44
2023/07/21 10:59:05;;;;;;;8.65;3.78;;;24.10;93.40;;;;;;5031456;28;20055;-49
2023/07/21 11:01:31;;;;;;;3.53;2.88;;;23.90;93.90;;;;;;5031525;28;20021;-44
2023/07/21 11:03:57;;;;;;;2.10;1.90;;;23.80;94.30;;;;;;5031251;28;20439;-44
2023/07/21 11:06:23;;;;;;;3.38;2.17;;;23.70;94.60;;;;;;5013368;28;20025;-43
2023/07/21 11:08:49;;;;;;;4.53;2.45;;;23.50;95.70;;;;;;5031229;28;20576;-45
2023/07/21 11:11:15;;;;;;;3.05;2.10;;;23.40;96.50;;;;;;5031238;28;20030;-46
2023/07/21 11:13:40;;;;;;;3.03;2.40;;;23.40;96.20;;;;;;5031217;28;20072;-44
2023/07/21 11:16:06;;;;;;;2.60;2.40;;;23.40;95.80;;;;;;5030931;28;20113;-46
2023/07/21 11:18:32;;;;;;;5.82;2.42;;;23.50;96.00;;;;;;5030778;28;20476;-47
2023/07/21 11:20:57;;;;;;;3.95;2.45;;;23.60;95.80;;;;;;5031350;28;20028;-47
2023/07/21 11:23:24;;;;;;;4.47;2.30;;;23.80;95.30;;;;;;5031265;28;20416;-45
2023/07/21 11:26:10;;;;;;;3.92;3.55;;;24.00;95.00;;;;;;5031296;28;20021;-48
2023/07/21 11:28:39;;;;;;;6.20;2.22;;;24.20;94.80;;;;;;5035082;28;20033;-47
2023/07/21 11:31:15;;;;;;;5.07;2.20;;;24.30;94.50;;;;;;5035522;28;20029;-46
2023/07/21 11:33:45;;;;;;;5.05;2.88;;;24.30;94.40;;;;;;5036293;28;20041;-43
2023/07/21 11:36:15;;;;;;;3.20;2.10;;;24.40;93.70;;;;;;5036450;28;20026;-43
2023/07/21 11:38:42;;;;;;;3.38;2.08;;;24.50;93.40;;;;;;5035056;28;20025;-39
2023/07/21 11:41:07;;;;;;;5.78;2.13;;;24.50;94.30;;;;;;5036112;28;20488;-44
2023/07/21 11:43:59;;;;;;;3.35;2.33;;;24.40;93.70;;;;;;5036135;28;20028;-45
2023/07/21 11:46:25;;;;;;;3.58;1.95;;;24.10;94.10;;;;;;5031880;28;20034;-45
2023/07/21 11:48:55;;;;;;;2.15;2.05;;;23.80;94.70;;;;;;5035722;28;20037;-45
2023/07/21 11:51:22;;;;;;;4.93;2.00;;;23.50;94.90;;;;;;5035596;28;20025;-46
2023/07/21 11:53:49;;;;;;;2.05;1.85;;;23.40;94.90;;;;;;5035670;28;20021;-44
2023/07/21 11:56:15;;;;;;;8.82;2.45;;;23.30;95.10;;;;;;5035258;28;20034;-44
2023/07/21 11:58:41;;;;;;;3.70;1.90;;;23.20;95.20;;;;;;5035026;28;20017;-44
2023/07/21 12:01:07;;;;;;;1.85;1.75;;;23.10;95.40;;;;;;5035660;28;20028;-44
2023/07/21 12:03:36;;;;;;;3.28;1.90;;;23.10;95.60;;;;;;5035120;28;20018;-43
2023/07/21 12:06:03;;;;;;;22.70;20.23;;;23.00;95.30;;;;;;5035474;28;20029;-44
2023/07/21 12:08:29;;;;;;;5.47;2.90;;;23.00;95.30;;;;;;5034752;28;20489;-43
2023/07/21 12:10:55;;;;;;;4.82;2.70;;;23.00;95.60;;;;;;5034556;28;20053;-43
2023/07/21 12:13:20;;;;;;;6.97;2.00;;;23.00;95.30;;;;;;5034338;28;20088;-45
2023/07/21 12:15:46;;;;;;;2.13;1.92;;;22.80;95.30;;;;;;5034499;28;20397;-45
2023/07/21 12:18:12;;;;;;;2.30;2.08;;;22.80;95.30;;;;;;5034195;28;20028;-46
2023/07/21 12:20:37;;;;;;;5.05;2.20;;;22.80;95.40;;;;;;5034544;28;20025;-44
2023/07/21 12:23:03;;;;;;;9.18;2.22;;;22.80;95.20;;;;;;5034218;28;20024;-44
2023/07/21 12:25:28;;;;;;;4.45;1.95;;;22.80;95.70;;;;;;5034201;28;20512;-45
2023/07/21 12:27:54;;;;;;;8.02;2.00;;;22.70;95.80;;;;;;5034866;28;20025;-45
2023/07/21 12:30:20;;;;;;;5.00;1.80;;;22.70;97.30;;;;;;5034437;28;20055;-42
2023/07/21 12:32:45;;;;;;;2.55;1.80;;;22.70;97.50;;;;;;5034102;28;20029;-46
2023/07/21 12:35:11;;;;;;;3.63;1.80;;;22.60;97.90;;;;;;5033077;22;20391;-51
2023/07/21 12:37:39;;;;;;;2.13;1.92;;;22.50;98.00;;;;;;4975952;28;20049;-53
2023/07/21 12:40:12;;;;;;;3.75;1.92;;;22.40;98.60;;;;;;4994710;28;20038;-52
2023/07/21 12:42:40;;;;;;;2.05;1.85;;;22.30;99.90;;;;;;4994546;28;20472;-53
2023/07/21 12:45:06;;;;;;;1.58;1.48;;;22.10;99.90;;;;;;4994089;28;20065;-50